Oyo, Nigeria
Current Conditions -  °F | °C
As of 11:00 AM on Friday 19 Dec 2014 (Local Time) from DNIB Reporting Station
Scattered Clouds Scattered Clouds  
Wind Chill: 84°   Ceiling: Unl
Heat Index: 91°   Visibility: 4mi
Dew Point: 73°   Wind: 7mph
Humidity: 70%   Direction: 180°S
Pressure: 29.94"   Gusts: NA
Location:  7.83°N, 3.92°E
Report Text: DNIB 191000Z 18006KT 6000 SCT013 29/23 Q1014
Loading
Personal Weather Stations






























Interactive Weather Map New forecast layout! Learn more

10-Day Weather Forecast

Advertisements
Track Severe Weather on mobile